Time;durP1;ratioP1;P1;durP2;ratioP2;P2;SDS_P1;SDS_P2;PMS_P1;PMS_P2;Temp;Humidity;BMP_temperature;BMP_pressure;BME280_temperature;BME280_humidity;BME280_pressure;Samples;Min_cycle;Max_cycle;Signal;HPM_P1;HPM_P2
2021/01/05 00:00:16;;;;;;;7.60;6.10;;;1.60;99.90;;;;;;5074574;28;20714;-75
2021/01/05 00:02:42;;;;;;;8.45;6.07;;;1.60;99.90;;;;;;5071212;28;20638;-75
2021/01/05 00:05:08;;;;;;;9.20;5.93;;;1.60;99.90;;;;;;5070737;28;20209;-75
2021/01/05 00:07:33;;;;;;;13.77;8.27;;;1.60;99.90;;;;;;5073538;28;20602;-76
2021/01/05 00:09:59;;;;;;;8.70;6.77;;;1.60;99.90;;;;;;5068167;28;20186;-76
2021/01/05 00:12:25;;;;;;;10.50;6.97;;;1.60;99.90;;;;;;5074853;28;20182;-76
2021/01/05 00:14:50;;;;;;;10.20;6.00;;;1.60;99.90;;;;;;5070063;28;20677;-75
2021/01/05 00:17:18;;;;;;;9.80;6.77;;;1.70;99.90;;;;;;5073975;28;20637;-76
2021/01/05 00:19:45;;;;;;;8.35;6.85;;;1.60;99.90;;;;;;5074717;28;20330;-75
2021/01/05 00:22:11;;;;;;;8.85;6.40;;;1.60;99.90;;;;;;5073822;28;20174;-74
2021/01/05 00:24:37;;;;;;;8.50;6.55;;;1.60;99.90;;;;;;5069904;28;20182;-75
2021/01/05 00:27:03;;;;;;;12.20;6.67;;;1.60;99.90;;;;;;5073549;28;20645;-75
2021/01/05 00:29:28;;;;;;;9.07;6.32;;;1.60;99.90;;;;;;5074092;28;20186;-75
2021/01/05 00:32:05;;;;;;;9.07;5.73;;;1.50;99.90;;;;;;5068973;28;20669;-75
2021/01/05 00:34:30;;;;;;;7.07;5.47;;;1.50;99.90;;;;;;5072722;28;20193;-75
2021/01/05 00:36:56;;;;;;;10.00;7.07;;;1.50;99.90;;;;;;5065813;28;20192;-75
2021/01/05 00:39:22;;;;;;;8.50;6.37;;;1.60;99.90;;;;;;5067860;28;20243;-75
2021/01/05 00:41:47;;;;;;;9.50;6.57;;;1.60;99.90;;;;;;5073017;28;20198;-75
2021/01/05 00:44:13;;;;;;;8.60;5.33;;;1.60;99.90;;;;;;5071095;28;20516;-75
2021/01/05 00:46:38;;;;;;;8.63;6.43;;;1.60;99.90;;;;;;5071072;28;20182;-75
2021/01/05 00:49:04;;;;;;;8.93;6.57;;;1.60;99.90;;;;;;5071238;28;20313;-75
2021/01/05 00:51:29;;;;;;;8.80;6.37;;;1.60;99.90;;;;;;5071439;28;20186;-75
2021/01/05 00:53:55;;;;;;;10.27;7.33;;;1.60;99.90;;;;;;5074084;28;20185;-75
2021/01/05 00:56:20;;;;;;;8.60;6.90;;;1.60;99.90;;;;;;5073682;28;20595;-75
2021/01/05 00:58:46;;;;;;;7.90;7.00;;;1.60;99.90;;;;;;5073580;28;20224;-74
2021/01/05 01:01:11;;;;;;;11.50;7.70;;;1.70;99.90;;;;;;5070268;28;20186;-76
2021/01/05 01:03:37;;;;;;;11.40;7.97;;;1.70;99.90;;;;;;5068888;28;20174;-75
2021/01/05 01:06:02;;;;;;;9.97;7.80;;;1.70;99.90;;;;;;5073515;28;20186;-75
2021/01/05 01:08:28;;;;;;;10.77;7.90;;;1.80;99.90;;;;;;5072385;28;20209;-75
2021/01/05 01:10:53;;;;;;;11.00;7.10;;;1.70;99.90;;;;;;5073341;28;20568;-75
2021/01/05 01:13:19;;;;;;;11.17;7.87;;;1.70;99.90;;;;;;5069437;28;20243;-75
2021/01/05 01:15:44;;;;;;;12.00;8.97;;;1.70;99.90;;;;;;5068826;28;20213;-75
2021/01/05 01:18:10;;;;;;;10.47;7.37;;;1.70;99.90;;;;;;5068016;28;20182;-75
2021/01/05 01:20:38;;;;;;;10.70;7.27;;;1.70;99.90;;;;;;5068093;28;20342;-75
2021/01/05 01:23:04;;;;;;;13.40;8.60;;;1.80;99.90;;;;;;5067610;28;20183;-75
2021/01/05 01:25:29;;;;;;;12.33;8.00;;;1.70;99.90;;;;;;5069739;28;20230;-75
2021/01/05 01:27:55;;;;;;;12.57;8.57;;;1.80;99.90;;;;;;5073057;28;20746;-75
2021/01/05 01:30:21;;;;;;;10.63;8.20;;;1.80;99.90;;;;;;5070974;28;20850;-75
2021/01/05 01:32:47;;;;;;;10.52;7.65;;;1.70;99.90;;;;;;5067015;28;20190;-75
2021/01/05 01:35:14;;;;;;;10.30;7.20;;;1.70;99.90;;;;;;5073510;28;20221;-75
2021/01/05 01:37:39;;;;;;;13.55;9.38;;;1.70;99.90;;;;;;5068463;28;20440;-75
2021/01/05 01:40:07;;;;;;;12.90;9.43;;;1.70;99.90;;;;;;5073218;28;20190;-74
2021/01/05 01:42:33;;;;;;;10.95;7.68;;;1.70;99.90;;;;;;5068703;28;20212;-74
2021/01/05 01:44:59;;;;;;;11.30;7.17;;;1.70;99.90;;;;;;5066392;28;20186;-75
2021/01/05 01:47:33;;;;;;;11.93;7.80;;;1.70;99.90;;;;;;5065911;28;20305;-75
2021/01/05 01:50:23;;;;;;;12.70;8.52;;;1.70;99.90;;;;;;5072358;28;20519;-75
2021/01/05 01:53:13;;;;;;;17.85;8.90;;;1.70;99.90;;;;;;5065368;28;20221;-75
2021/01/05 01:55:57;;;;;;;11.52;8.30;;;1.80;99.90;;;;;;5074747;28;20214;-75
2021/01/05 01:58:54;;;;;;;12.32;8.27;;;1.70;99.90;;;;;;5068832;28;20181;-76
2021/01/05 02:01:52;;;;;;;11.75;7.80;;;1.80;99.90;;;;;;5065310;28;20198;-75
2021/01/05 02:04:37;;;;;;;12.50;8.32;;;1.70;99.90;;;;;;5063418;28;20691;-75
2021/01/05 02:07:18;;;;;;;11.90;8.90;;;1.80;99.90;;;;;;5069680;28;20299;-75
2021/01/05 02:10:06;;;;;;;13.23;7.70;;;1.70;99.90;;;;;;5067994;28;20229;-75
2021/01/05 02:13:04;;;;;;;11.80;8.50;;;1.70;99.90;;;;;;5067336;28;20186;-75
2021/01/05 02:15:53;;;;;;;9.35;6.63;;;1.80;99.90;;;;;;5063395;28;20297;-75
2021/01/05 02:18:35;;;;;;;15.57;9.30;;;1.80;99.90;;;;;;5067965;28;20647;-75
2021/01/05 02:21:05;;;;;;;9.85;7.90;;;1.80;99.90;;;;;;5072389;28;20616;-75
2021/01/05 02:23:47;;;;;;;10.85;8.38;;;1.80;99.90;;;;;;5061298;28;20188;-76
2021/01/05 02:26:26;;;;;;;12.10;8.15;;;1.80;99.90;;;;;;5071871;28;20178;-74
2021/01/05 02:28:57;;;;;;;13.43;8.48;;;1.80;99.90;;;;;;5072294;28;20197;-75
2021/01/05 02:31:44;;;;;;;10.15;8.23;;;1.90;99.90;;;;;;5072005;28;20550;-76
2021/01/05 02:34:30;;;;;;;9.88;8.02;;;1.90;99.90;;;;;;5071044;28;20182;-75
2021/01/05 02:37:22;;;;;;;13.35;8.00;;;1.90;99.90;;;;;;5068842;28;20212;-75
2021/01/05 02:40:29;;;;;;;11.20;6.85;;;2.00;99.90;;;;;;5068067;28;20552;-75
2021/01/05 02:42:59;;;;;;;8.95;6.68;;;2.00;99.90;;;;;;5056282;28;20278;-75
2021/01/05 02:45:33;;;;;;;9.27;7.30;;;2.00;99.90;;;;;;5067763;28;20186;-75
2021/01/05 02:48:10;;;;;;;8.07;6.65;;;2.00;99.90;;;;;;5067153;28;20229;-74
2021/01/05 02:50:49;;;;;;;11.80;8.50;;;2.00;99.90;;;;;;5070387;28;20193;-75
2021/01/05 02:53:38;;;;;;;11.73;7.97;;;2.00;99.90;;;;;;5067040;28;20187;-75
2021/01/05 02:56:29;;;;;;;8.20;6.95;;;2.10;99.90;;;;;;5068229;28;20227;-75
2021/01/05 02:59:22;;;;;;;12.27;8.57;;;2.10;99.90;;;;;;5064251;28;20186;-75
2021/01/05 03:02:25;;;;;;;9.82;8.15;;;2.10;99.90;;;;;;5064156;28;20608;-75
2021/01/05 03:04:51;;;;;;;10.27;7.20;;;2.10;99.90;;;;;;5069248;28;20261;-75
2021/01/05 03:07:25;;;;;;;10.77;6.53;;;2.10;99.90;;;;;;5071623;28;20221;-75
2021/01/05 03:10:08;;;;;;;10.73;6.30;;;2.10;99.90;;;;;;5064069;28;20194;-75
2021/01/05 03:13:05;;;;;;;9.02;6.50;;;2.20;99.90;;;;;;5070830;28;20668;-74
2021/01/05 03:15:57;;;;;;;11.40;8.10;;;2.20;99.90;;;;;;5069669;28;20241;-75
2021/01/05 03:18:56;;;;;;;11.32;6.90;;;2.20;99.90;;;;;;5070705;28;20543;-76
2021/01/05 03:21:27;;;;;;;12.98;9.35;;;2.20;99.90;;;;;;5070441;28;20182;-76
2021/01/05 03:23:54;;;;;;;12.45;8.43;;;2.20;99.90;;;;;;5067616;28;20181;-75
2021/01/05 03:26:25;;;;;;;12.60;8.45;;;2.20;99.90;;;;;;5066973;28;20594;-75
2021/01/05 03:28:51;;;;;;;11.05;8.20;;;2.20;99.90;;;;;;5063936;28;20181;-75
2021/01/05 03:31:23;;;;;;;13.80;8.40;;;2.20;99.90;;;;;;5068526;28;20559;-76
2021/01/05 03:33:53;;;;;;;13.52;7.80;;;2.20;99.90;;;;;;5065128;28;20178;-75
2021/01/05 03:36:18;;;;;;;13.90;8.55;;;2.10;99.90;;;;;;5064810;28;20797;-76
2021/01/05 03:38:44;;;;;;;16.10;10.17;;;2.10;99.90;;;;;;5065799;28;20175;-75
2021/01/05 03:41:09;;;;;;;17.30;9.20;;;2.10;99.90;;;;;;5069346;28;20277;-75
2021/01/05 03:43:35;;;;;;;17.47;9.50;;;2.10;99.90;;;;;;5069962;28;20305;-75
2021/01/05 03:46:00;;;;;;;10.70;8.73;;;2.10;99.90;;;;;;5071631;28;20239;-75
2021/01/05 03:48:26;;;;;;;15.73;10.20;;;2.10;99.90;;;;;;5067877;28;20275;-75
2021/01/05 03:50:52;;;;;;;15.10;9.27;;;2.10;99.90;;;;;;5071306;28;20224;-75
2021/01/05 03:53:18;;;;;;;14.15;9.48;;;2.10;99.90;;;;;;5059266;28;20246;-75
2021/01/05 03:55:43;;;;;;;15.83;9.50;;;2.10;99.90;;;;;;5071127;28;20230;-75
2021/01/05 03:58:09;;;;;;;10.97;8.80;;;2.10;99.90;;;;;;5069658;28;20232;-75
2021/01/05 04:00:35;;;;;;;15.40;10.15;;;2.10;99.90;;;;;;5069768;28;20190;-75
2021/01/05 04:03:00;;;;;;;14.77;9.10;;;2.10;99.90;;;;;;5068660;28;20178;-75
2021/01/05 04:05:27;;;;;;;14.77;11.07;;;2.10;99.90;;;;;;5071460;28;20186;-75
2021/01/05 04:07:53;;;;;;;14.32;9.95;;;2.10;99.90;;;;;;5066625;28;20189;-75
2021/01/05 04:10:19;;;;;;;17.97;11.80;;;2.00;99.90;;;;;;5070992;28;20578;-75
2021/01/05 04:12:45;;;;;;;15.90;10.00;;;2.00;99.90;;;;;;5070637;28;20944;-75
2021/01/05 04:15:20;;;;;;;16.00;10.40;;;2.00;99.90;;;;;;5068094;28;20502;-76
2021/01/05 04:17:46;;;;;;;21.63;11.90;;;2.00;99.90;;;;;;5070380;28;20439;-75
2021/01/05 04:20:13;;;;;;;17.73;10.80;;;2.00;99.90;;;;;;5070301;28;20197;-75
2021/01/05 04:22:39;;;;;;;19.50;11.63;;;2.00;99.90;;;;;;5074667;28;20598;-74
2021/01/05 04:25:06;;;;;;;26.40;14.50;;;2.00;99.90;;;;;;5070909;28;20186;-75
2021/01/05 04:27:31;;;;;;;19.40;11.07;;;2.00;99.90;;;;;;5074365;28;20193;-75
2021/01/05 04:29:57;;;;;;;15.37;11.00;;;2.00;99.90;;;;;;5073517;28;20182;-75
2021/01/05 04:32:23;;;;;;;20.30;13.07;;;2.00;99.90;;;;;;5072862;28;20665;-75
2021/01/05 04:34:48;;;;;;;19.33;11.90;;;2.00;99.90;;;;;;5072313;28;20214;-75
2021/01/05 04:37:14;;;;;;;20.70;11.67;;;2.00;99.90;;;;;;5070054;28;20185;-75
2021/01/05 04:39:39;;;;;;;20.90;12.90;;;2.10;99.90;;;;;;5068910;28;20183;-75
2021/01/05 04:42:11;;;;;;;18.90;13.27;;;2.10;99.90;;;;;;5074389;28;20728;-75
2021/01/05 04:44:49;;;;;;;21.15;14.23;;;2.10;99.90;;;;;;5072272;28;20196;-75
2021/01/05 04:47:23;;;;;;;19.50;12.73;;;2.10;99.90;;;;;;5069356;28;20595;-76
2021/01/05 04:50:09;;;;;;;17.08;11.75;;;2.10;99.90;;;;;;5077622;28;20190;-75
2021/01/05 04:52:46;;;;;;;17.30;11.60;;;2.10;99.90;;;;;;5069423;28;20209;-76
2021/01/05 04:55:20;;;;;;;17.60;12.23;;;2.20;99.90;;;;;;5073817;28;20210;-76
2021/01/05 04:57:49;;;;;;;18.70;13.10;;;2.20;99.90;;;;;;5071437;28;20181;-74
2021/01/05 05:00:26;;;;;;;18.88;13.52;;;2.20;99.90;;;;;;5069223;28;20194;-76
2021/01/05 05:03:09;;;;;;;21.55;12.35;;;2.20;99.90;;;;;;5071437;28;20177;-75
2021/01/05 05:05:54;;;;;;;21.98;12.00;;;2.20;99.90;;;;;;5068061;28;20182;-74
2021/01/05 05:08:49;;;;;;;20.90;12.30;;;2.20;99.90;;;;;;5072753;28;20201;-74
2021/01/05 05:11:20;;;;;;;19.42;12.15;;;2.30;99.90;;;;;;5064455;28;20675;-77
2021/01/05 05:14:02;;;;;;;20.33;13.13;;;2.30;99.90;;;;;;5070550;28;20186;-76
2021/01/05 05:17:04;;;;;;;20.77;13.00;;;2.30;99.90;;;;;;5064559;28;20218;-76
2021/01/05 05:19:39;;;;;;;18.83;11.20;;;2.30;99.90;;;;;;5069868;28;20189;-74
2021/01/05 05:22:19;;;;;;;19.55;12.82;;;2.30;99.90;;;;;;5069200;28;20186;-76
2021/01/05 05:25:04;;;;;;;18.50;12.70;;;2.30;99.90;;;;;;5072218;28;20525;-77
2021/01/05 05:27:54;;;;;;;18.10;12.45;;;2.30;99.90;;;;;;5064773;28;20178;-76
2021/01/05 05:30:34;;;;;;;16.80;11.75;;;2.40;99.90;;;;;;5073551;28;20213;-76
2021/01/05 05:33:04;;;;;;;18.70;11.52;;;2.30;99.90;;;;;;5068852;28;20186;-77
2021/01/05 05:35:41;;;;;;;25.02;13.77;;;2.30;99.90;;;;;;5065887;28;20587;-77
2021/01/05 05:38:26;;;;;;;18.00;12.35;;;2.30;99.90;;;;;;5071226;28;20181;-76
2021/01/05 05:41:23;;;;;;;19.25;11.25;;;2.30;99.90;;;;;;5068331;28;20273;-76
2021/01/05 05:44:06;;;;;;;16.98;11.15;;;2.30;99.90;;;;;;5065994;28;20185;-76
2021/01/05 05:46:42;;;;;;;16.33;10.50;;;2.30;99.90;;;;;;5072156;28;20180;-76
2021/01/05 05:49:22;;;;;;;22.13;12.68;;;2.30;99.90;;;;;;5072951;28;20332;-76
2021/01/05 05:51:52;;;;;;;21.73;12.70;;;2.40;99.90;;;;;;5065610;28;20197;-76
2021/01/05 05:54:21;;;;;;;19.10;12.55;;;2.40;99.90;;;;;;5067627;28;20178;-76
2021/01/05 05:56:55;;;;;;;21.73;13.25;;;2.40;99.90;;;;;;5072336;28;20193;-76
2021/01/05 05:59:38;;;;;;;21.75;12.15;;;2.40;99.90;;;;;;5072112;28;20190;-77
2021/01/05 06:02:03;;;;;;;24.35;13.30;;;2.40;99.90;;;;;;5067110;28;20186;-76
2021/01/05 06:04:33;;;;;;;20.27;13.80;;;2.40;99.90;;;;;;5068694;28;20193;-76
2021/01/05 06:06:58;;;;;;;24.17;12.75;;;2.40;99.90;;;;;;5070252;28;20189;-76
2021/01/05 06:09:24;;;;;;;22.10;14.27;;;2.50;99.90;;;;;;5066288;28;20265;-77
2021/01/05 06:11:53;;;;;;;27.17;14.43;;;2.50;99.90;;;;;;5072816;28;20213;-77
2021/01/05 06:14:19;;;;;;;22.40;13.80;;;2.40;99.90;;;;;;5067817;28;20198;-76
2021/01/05 06:16:45;;;;;;;19.97;13.03;;;2.40;99.90;;;;;;5077985;28;20201;-77
2021/01/05 06:19:10;;;;;;;21.27;12.80;;;2.50;99.90;;;;;;5072748;28;20276;-76
2021/01/05 06:21:36;;;;;;;28.27;17.20;;;2.50;99.90;;;;;;5070119;28;20189;-76
2021/01/05 06:24:01;;;;;;;24.30;16.40;;;2.50;99.90;;;;;;5068052;28;20554;-76
2021/01/05 06:26:27;;;;;;;19.97;13.63;;;2.50;99.90;;;;;;5072429;28;20696;-76
2021/01/05 06:28:52;;;;;;;20.80;13.97;;;2.50;99.90;;;;;;5071041;28;20220;-76
2021/01/05 06:31:18;;;;;;;27.37;14.00;;;2.50;99.90;;;;;;5069477;28;20688;-76
2021/01/05 06:33:43;;;;;;;21.20;13.10;;;2.50;99.90;;;;;;5070214;28;20186;-76
2021/01/05 06:36:09;;;;;;;22.20;13.57;;;2.50;99.90;;;;;;5071791;28;20248;-76
2021/01/05 06:38:34;;;;;;;22.53;13.17;;;2.50;99.90;;;;;;5067403;28;20209;-76
2021/01/05 06:41:00;;;;;;;19.73;11.50;;;2.50;99.90;;;;;;5072156;28;20189;-76
2021/01/05 06:43:25;;;;;;;22.70;13.00;;;2.50;99.90;;;;;;5072059;28;20181;-77
2021/01/05 06:45:51;;;;;;;19.27;12.30;;;2.50;99.90;;;;;;5067272;28;20185;-76
2021/01/05 06:48:17;;;;;;;20.27;13.40;;;2.50;99.90;;;;;;5068411;28;20225;-76
2021/01/05 06:50:42;;;;;;;20.90;13.50;;;2.50;99.90;;;;;;5070040;28;20217;-76
2021/01/05 06:53:08;;;;;;;20.20;13.27;;;2.50;99.90;;;;;;5065065;28;20186;-76
2021/01/05 06:55:33;;;;;;;22.43;13.00;;;2.50;99.90;;;;;;5070176;28;20222;-76
2021/01/05 06:57:59;;;;;;;23.23;13.40;;;2.50;99.90;;;;;;5068439;28;20630;-76
2021/01/05 07:00:27;;;;;;;24.57;14.03;;;2.50;99.90;;;;;;5072096;28;20194;-76
2021/01/05 07:02:53;;;;;;;26.45;15.23;;;2.50;99.90;;;;;;5068001;28;20247;-76
2021/01/05 07:05:19;;;;;;;22.80;13.13;;;2.50;99.90;;;;;;5070784;28;20645;-77
2021/01/05 07:07:46;;;;;;;17.23;11.82;;;2.50;99.90;;;;;;5064977;28;20436;-76
2021/01/05 07:10:13;;;;;;;20.13;12.85;;;2.50;99.90;;;;;;5070863;28;20269;-76
2021/01/05 07:12:38;;;;;;;20.65;12.68;;;2.50;99.90;;;;;;5071815;28;20615;-76
2021/01/05 07:15:06;;;;;;;19.30;13.27;;;2.60;99.90;;;;;;5069785;28;20290;-76
2021/01/05 07:17:32;;;;;;;18.52;11.75;;;2.60;99.90;;;;;;5069221;28;20188;-77
2021/01/05 07:19:57;;;;;;;18.20;12.87;;;2.50;99.90;;;;;;5072098;28;20185;-76
2021/01/05 07:22:23;;;;;;;19.90;12.77;;;2.50;99.90;;;;;;5072098;28;20641;-76
2021/01/05 07:24:48;;;;;;;22.50;13.37;;;2.50;99.90;;;;;;5070331;28;20633;-76
2021/01/05 07:27:14;;;;;;;24.40;14.13;;;2.50;99.90;;;;;;5067777;28;20195;-76
2021/01/05 07:29:39;;;;;;;23.93;14.17;;;2.50;99.90;;;;;;5069940;28;20694;-76
2021/01/05 07:32:05;;;;;;;23.50;14.10;;;2.50;99.90;;;;;;5070418;28;20320;-76
2021/01/05 07:34:32;;;;;;;23.80;14.30;;;2.50;99.90;;;;;;5067631;28;20542;-75
2021/01/05 07:37:04;;;;;;;19.83;14.18;;;2.60;99.90;;;;;;5070981;28;20190;-76
2021/01/05 07:39:32;;;;;;;20.23;13.43;;;2.60;99.90;;;;;;5069369;28;20249;-76
2021/01/05 07:42:12;;;;;;;21.33;13.55;;;2.60;99.90;;;;;;5070357;28;20178;-75
2021/01/05 07:44:39;;;;;;;26.48;14.88;;;2.60;99.90;;;;;;5065017;28;20185;-75
2021/01/05 07:47:04;;;;;;;19.25;15.23;;;2.60;99.90;;;;;;5068973;28;20236;-76
2021/01/05 07:49:30;;;;;;;22.17;14.70;;;2.60;99.90;;;;;;5070325;28;20178;-76
2021/01/05 07:51:55;;;;;;;24.77;14.53;;;2.60;99.90;;;;;;5073555;28;20550;-76
2021/01/05 07:54:21;;;;;;;22.10;13.23;;;2.70;99.90;;;;;;5072838;28;20228;-76
2021/01/05 07:56:46;;;;;;;24.83;16.70;;;2.70;99.90;;;;;;5073694;28;20189;-76
2021/01/05 07:59:12;;;;;;;22.93;15.30;;;2.70;99.90;;;;;;5075204;28;20231;-76
2021/01/05 08:01:37;;;;;;;24.43;15.80;;;2.70;99.90;;;;;;5073584;28;20178;-76
2021/01/05 08:04:03;;;;;;;21.20;14.27;;;2.80;99.90;;;;;;5070587;28;20531;-75
2021/01/05 08:06:29;;;;;;;22.87;13.87;;;2.80;99.90;;;;;;5068454;28;20190;-76
2021/01/05 08:08:54;;;;;;;18.73;12.77;;;2.80;99.90;;;;;;5070874;28;20436;-75
2021/01/05 08:11:20;;;;;;;22.70;14.53;;;2.80;99.90;;;;;;5074377;28;20239;-76
2021/01/05 08:13:45;;;;;;;22.83;14.10;;;2.80;99.90;;;;;;5070585;28;20189;-75
2021/01/05 08:16:14;;;;;;;23.87;14.67;;;2.80;99.90;;;;;;5073257;28;20236;-76
2021/01/05 08:18:40;;;;;;;23.92;12.50;;;2.80;99.90;;;;;;5067869;28;20174;-76
2021/01/05 08:21:07;;;;;;;27.00;16.03;;;2.80;99.90;;;;;;5074964;28;20211;-76
2021/01/05 08:23:32;;;;;;;20.50;12.85;;;2.80;99.90;;;;;;5070216;28;20182;-76
2021/01/05 08:25:58;;;;;;;22.50;12.73;;;2.80;99.90;;;;;;5074325;28;20670;-76
2021/01/05 08:28:23;;;;;;;19.13;12.90;;;2.70;99.90;;;;;;5074840;28;20182;-76
2021/01/05 08:30:49;;;;;;;22.73;13.20;;;2.80;99.90;;;;;;5071445;28;20185;-76
2021/01/05 08:33:16;;;;;;;20.83;13.20;;;2.80;99.90;;;;;;5072615;28;20190;-76
2021/01/05 08:35:46;;;;;;;19.42;12.65;;;2.80;99.90;;;;;;5074167;28;20306;-76
2021/01/05 08:38:12;;;;;;;16.90;12.88;;;2.80;99.90;;;;;;5069242;28;20252;-75
2021/01/05 08:40:38;;;;;;;20.08;12.70;;;2.80;99.90;;;;;;5073291;28;20670;-76
2021/01/05 08:43:06;;;;;;;20.10;12.27;;;2.80;99.90;;;;;;5071587;28;20193;-75
2021/01/05 08:45:32;;;;;;;16.88;11.73;;;2.80;99.90;;;;;;5074231;28;20186;-76
2021/01/05 08:48:00;;;;;;;19.02;12.40;;;2.80;99.90;;;;;;5067444;28;20222;-76
2021/01/05 08:50:29;;;;;;;18.13;11.60;;;2.80;99.90;;;;;;5073886;28;20226;-76
2021/01/05 08:52:59;;;;;;;21.85;12.45;;;2.90;99.90;;;;;;5067881;28;20208;-76
2021/01/05 08:55:26;;;;;;;21.63;12.95;;;2.90;99.90;;;;;;5073155;28;20212;-76
2021/01/05 08:57:52;;;;;;;17.35;12.48;;;2.90;99.90;;;;;;5069595;28;20217;-76
2021/01/05 09:00:18;;;;;;;18.67;12.88;;;2.90;99.90;;;;;;5073135;28;20205;-75
2021/01/05 09:02:44;;;;;;;18.58;13.23;;;2.90;99.90;;;;;;5068040;28;20185;-75
2021/01/05 09:05:10;;;;;;;20.43;13.67;;;2.90;99.90;;;;;;5073660;28;20196;-75
2021/01/05 09:07:36;;;;;;;23.30;15.63;;;2.80;99.90;;;;;;5071434;28;20188;-75
2021/01/05 09:10:04;;;;;;;19.80;12.83;;;2.80;99.90;;;;;;5068403;28;20637;-75
2021/01/05 09:12:34;;;;;;;19.77;13.65;;;2.90;99.90;;;;;;5068804;28;20432;-76
2021/01/05 09:15:02;;;;;;;19.13;13.70;;;2.90;99.90;;;;;;5078497;28;20232;-75
2021/01/05 09:17:27;;;;;;;15.93;11.73;;;2.90;99.90;;;;;;5068219;28;20257;-76
2021/01/05 09:19:53;;;;;;;17.00;12.77;;;2.90;99.90;;;;;;5067897;28;20284;-75
2021/01/05 09:22:25;;;;;;;19.03;14.37;;;2.90;99.90;;;;;;5071542;28;20931;-75
2021/01/05 09:24:51;;;;;;;24.33;13.70;;;2.90;99.90;;;;;;5065631;28;20193;-75
2021/01/05 09:27:17;;;;;;;19.00;12.38;;;2.90;99.90;;;;;;5073242;28;20555;-75
2021/01/05 09:29:43;;;;;;;15.80;11.77;;;3.00;99.90;;;;;;5071163;28;20178;-75
2021/01/05 09:32:09;;;;;;;24.80;14.23;;;3.00;99.90;;;;;;5073223;28;20235;-75
2021/01/05 09:34:35;;;;;;;18.75;13.13;;;3.00;99.90;;;;;;5071701;28;20210;-75
2021/01/05 09:37:06;;;;;;;16.30;11.98;;;3.00;99.90;;;;;;5072155;28;20194;-75
2021/01/05 09:39:32;;;;;;;17.52;13.48;;;3.00;99.90;;;;;;5069720;28;20235;-75
2021/01/05 09:42:00;;;;;;;18.37;13.07;;;3.00;99.90;;;;;;5070367;28;20269;-75
2021/01/05 09:44:26;;;;;;;19.35;13.10;;;3.00;99.90;;;;;;5067416;28;20428;-75
2021/01/05 09:46:53;;;;;;;16.53;10.90;;;3.00;99.90;;;;;;5068265;28;20194;-75
2021/01/05 09:49:19;;;;;;;15.07;10.70;;;3.10;99.90;;;;;;5073007;28;20474;-75
2021/01/05 09:51:44;;;;;;;19.60;13.13;;;3.10;99.90;;;;;;5067601;28;20701;-75
2021/01/05 09:54:14;;;;;;;18.17;13.00;;;3.10;99.90;;;;;;5068567;28;20227;-77
2021/01/05 09:56:41;;;;;;;19.92;13.68;;;3.10;99.90;;;;;;5070780;28;20213;-75
2021/01/05 09:59:06;;;;;;;16.83;12.80;;;3.10;99.90;;;;;;5071980;28;20271;-75
2021/01/05 10:01:34;;;;;;;24.67;15.00;;;3.10;99.90;;;;;;5072384;28;20617;-75
2021/01/05 10:03:59;;;;;;;18.85;11.95;;;3.00;99.90;;;;;;5072982;28;20209;-75
2021/01/05 10:06:33;;;;;;;17.13;11.70;;;3.10;99.90;;;;;;5067635;28;20178;-75
2021/01/05 10:09:00;;;;;;;18.15;11.77;;;3.10;99.90;;;;;;5071735;28;20190;-74
2021/01/05 10:11:32;;;;;;;16.83;11.50;;;3.10;99.90;;;;;;5071321;28;20193;-75
2021/01/05 10:13:57;;;;;;;16.65;11.38;;;3.10;99.90;;;;;;5072375;28;20186;-74
2021/01/05 10:16:23;;;;;;;16.67;10.60;;;3.10;99.90;;;;;;5071193;28;20228;-74
2021/01/05 10:18:48;;;;;;;19.60;12.17;;;3.10;99.90;;;;;;5072749;28;20177;-75
2021/01/05 10:21:14;;;;;;;16.73;12.30;;;3.10;99.90;;;;;;5070199;28;20238;-75
2021/01/05 10:23:40;;;;;;;17.73;13.10;;;3.10;99.90;;;;;;5069563;28;20186;-75
2021/01/05 10:26:05;;;;;;;16.27;11.98;;;3.10;99.90;;;;;;5072682;28;20538;-74
2021/01/05 10:28:31;;;;;;;16.87;11.13;;;3.10;99.90;;;;;;5067001;28;20189;-75
2021/01/05 10:30:56;;;;;;;15.80;11.37;;;3.20;99.90;;;;;;5069299;28;20189;-74
2021/01/05 10:33:22;;;;;;;19.97;12.40;;;3.20;99.90;;;;;;5072012;28;20184;-75
2021/01/05 10:35:48;;;;;;;16.73;12.00;;;3.20;99.90;;;;;;5070462;28;20249;-74
2021/01/05 10:38:13;;;;;;;16.35;10.43;;;3.20;99.90;;;;;;5070978;28;20182;-74
2021/01/05 10:40:39;;;;;;;18.73;12.73;;;3.30;99.90;;;;;;5069465;28;20231;-75
2021/01/05 10:43:04;;;;;;;17.17;12.20;;;3.30;99.90;;;;;;5067563;28;20178;-74
2021/01/05 10:45:30;;;;;;;16.83;12.37;;;3.30;99.90;;;;;;5070266;28;20196;-75
2021/01/05 10:47:57;;;;;;;21.80;14.60;;;3.40;99.90;;;;;;5069307;28;20228;-74
2021/01/05 10:50:24;;;;;;;20.88;16.25;;;3.40;99.90;;;;;;5066324;28;20185;-75
2021/01/05 10:52:51;;;;;;;22.60;14.57;;;3.50;99.90;;;;;;5071437;28;20642;-74
2021/01/05 10:55:19;;;;;;;15.75;12.90;;;3.60;99.90;;;;;;5069459;28;20698;-74
2021/01/05 10:57:45;;;;;;;19.42;13.20;;;3.60;99.90;;;;;;5069435;28;20186;-75
2021/01/05 11:00:15;;;;;;;15.93;10.77;;;3.60;99.90;;;;;;5071182;28;20177;-75
2021/01/05 11:02:40;;;;;;;20.02;11.80;;;3.70;99.90;;;;;;5067529;28;20759;-75
2021/01/05 11:05:06;;;;;;;16.50;10.97;;;3.70;99.90;;;;;;5071592;28;20177;-74
2021/01/05 11:07:32;;;;;;;15.10;10.75;;;3.70;99.90;;;;;;5066603;28;20186;-75
2021/01/05 11:09:58;;;;;;;17.57;12.03;;;3.70;99.90;;;;;;5071393;28;20223;-74
2021/01/05 11:12:28;;;;;;;23.45;15.75;;;3.70;99.90;;;;;;5070840;28;20665;-75
2021/01/05 11:14:53;;;;;;;19.40;13.73;;;3.70;99.90;;;;;;5070828;28;20217;-74
2021/01/05 11:17:19;;;;;;;23.50;15.90;;;3.70;99.90;;;;;;5066762;28;20551;-75
2021/01/05 11:19:46;;;;;;;18.20;13.43;;;3.70;99.90;;;;;;5071232;28;20196;-74
2021/01/05 11:22:16;;;;;;;22.35;15.07;;;3.70;99.90;;;;;;5070012;28;20189;-74
2021/01/05 11:24:42;;;;;;;19.33;14.40;;;3.80;99.90;;;;;;5068715;28;20178;-74
2021/01/05 11:27:08;;;;;;;19.70;12.32;;;3.80;99.90;;;;;;5074360;28;20189;-75
2021/01/05 11:29:35;;;;;;;16.25;11.30;;;3.90;99.90;;;;;;5071670;28;20187;-75
2021/01/05 11:32:06;;;;;;;16.63;12.25;;;3.90;99.90;;;;;;5075354;28;20186;-74
2021/01/05 11:34:32;;;;;;;17.55;12.73;;;3.90;99.90;;;;;;5070727;28;20181;-74
2021/01/05 11:37:02;;;;;;;18.63;13.57;;;3.90;99.90;;;;;;5076601;28;20182;-74
2021/01/05 11:39:28;;;;;;;19.83;13.57;;;3.90;99.90;;;;;;5071366;28;20214;-75
2021/01/05 11:41:57;;;;;;;18.20;12.80;;;3.90;99.90;;;;;;5075303;28;20234;-74
2021/01/05 11:44:23;;;;;;;16.45;11.98;;;3.90;99.90;;;;;;5076286;28;20203;-75
2021/01/05 11:46:49;;;;;;;18.47;12.70;;;3.90;99.90;;;;;;5073855;28;20260;-74
2021/01/05 11:49:14;;;;;;;23.10;14.00;;;3.90;99.90;;;;;;5071952;28;20685;-74
2021/01/05 11:51:40;;;;;;;28.70;20.87;;;3.90;99.90;;;;;;5073513;28;20181;-75
2021/01/05 11:54:05;;;;;;;17.50;12.17;;;3.90;99.90;;;;;;5070197;28;20253;-75
2021/01/05 11:56:33;;;;;;;19.53;15.20;;;3.90;99.90;;;;;;5074831;28;20228;-75
2021/01/05 11:58:59;;;;;;;19.00;13.65;;;3.80;99.90;;;;;;5069887;28;20193;-74
2021/01/05 12:01:26;;;;;;;19.67;15.32;;;3.90;99.90;;;;;;5070623;28;20264;-74
2021/01/05 12:03:51;;;;;;;15.18;12.25;;;3.90;99.90;;;;;;5073650;28;20190;-74
2021/01/05 12:06:20;;;;;;;18.17;12.67;;;3.80;99.90;;;;;;5075332;28;20264;-74
2021/01/05 12:08:46;;;;;;;20.23;13.65;;;3.80;99.90;;;;;;5070787;28;20439;-74
2021/01/05 12:11:26;;;;;;;20.25;14.13;;;3.70;99.90;;;;;;5074545;28;20183;-74
2021/01/05 12:13:52;;;;;;;19.85;13.50;;;3.70;99.90;;;;;;5073305;28;20192;-74
2021/01/05 12:16:47;;;;;;;16.55;13.48;;;3.70;99.90;;;;;;5071008;28;20217;-74
2021/01/05 12:19:19;;;;;;;16.85;11.70;;;3.80;99.90;;;;;;5067695;28;20194;-75
2021/01/05 12:21:45;;;;;;;20.27;13.70;;;3.70;99.90;;;;;;5072922;28;20185;-75
2021/01/05 12:24:18;;;;;;;16.53;12.60;;;3.60;99.90;;;;;;5073463;28;20174;-75
2021/01/05 12:26:44;;;;;;;21.13;14.13;;;3.60;99.90;;;;;;5066757;28;20190;-75
2021/01/05 12:29:13;;;;;;;20.45;14.48;;;3.50;99.90;;;;;;5073106;28;20266;-74
2021/01/05 12:31:53;;;;;;;22.10;16.15;;;3.50;99.90;;;;;;5071790;28;20231;-75
2021/01/05 12:34:22;;;;;;;24.27;17.30;;;3.40;99.90;;;;;;5064685;28;20718;-74
2021/01/05 12:36:48;;;;;;;20.65;15.57;;;3.50;99.90;;;;;;5070930;28;20283;-75
2021/01/05 12:39:20;;;;;;;20.33;14.48;;;3.50;99.90;;;;;;5071500;28;20618;-75
2021/01/05 12:41:46;;;;;;;21.52;15.10;;;3.50;99.90;;;;;;5079901;28;20223;-74
2021/01/05 12:44:15;;;;;;;20.35;14.35;;;3.50;99.90;;;;;;5073681;28;20617;-74
2021/01/05 12:46:41;;;;;;;21.08;12.60;;;3.50;99.90;;;;;;5067475;28;20763;-74
2021/01/05 12:49:08;;;;;;;17.95;13.05;;;3.50;99.90;;;;;;5074219;28;20648;-75
2021/01/05 12:51:36;;;;;;;20.00;12.80;;;3.50;99.90;;;;;;5069682;28;20592;-74
2021/01/05 12:54:02;;;;;;;21.80;13.85;;;3.60;99.90;;;;;;5073628;28;20637;-74